sensor_id;sensor_type;location;lat;lon;timestamp;P1;durP1;ratioP1;P2;durP2;ratioP2
67274;SDS011;55463;52.324;5.122;2023-03-01T00:00:38;53.75;;;22.75;;
67274;SDS011;55463;52.324;5.122;2023-03-01T00:03:03;46.55;;;21.50;;
67274;SDS011;55463;52.324;5.122;2023-03-01T00:05:29;45.70;;;20.60;;
67274;SDS011;55463;52.324;5.122;2023-03-01T00:07:55;50.60;;;21.23;;
67274;SDS011;55463;52.324;5.122;2023-03-01T00:10:20;40.17;;;19.83;;
67274;SDS011;55463;52.324;5.122;2023-03-01T00:12:45;44.10;;;20.95;;
67274;SDS011;55463;52.324;5.122;2023-03-01T00:15:11;41.53;;;20.60;;
67274;SDS011;55463;52.324;5.122;2023-03-01T00:17:36;39.42;;;21.33;;
67274;SDS011;55463;52.324;5.122;2023-03-01T00:20:02;37.33;;;20.15;;
67274;SDS011;55463;52.324;5.122;2023-03-01T00:22:28;37.30;;;19.73;;
67274;SDS011;55463;52.324;5.122;2023-03-01T00:24:54;43.42;;;21.52;;
67274;SDS011;55463;52.324;5.122;2023-03-01T00:27:19;50.50;;;21.52;;
67274;SDS011;55463;52.324;5.122;2023-03-01T00:29:45;52.92;;;22.42;;
67274;SDS011;55463;52.324;5.122;2023-03-01T00:32:10;47.60;;;22.45;;
67274;SDS011;55463;52.324;5.122;2023-03-01T00:34:35;42.17;;;21.33;;
67274;SDS011;55463;52.324;5.122;2023-03-01T00:37:01;47.63;;;22.05;;
67274;SDS011;55463;52.324;5.122;2023-03-01T00:39:30;43.33;;;21.88;;
67274;SDS011;55463;52.324;5.122;2023-03-01T00:41:56;46.35;;;21.75;;
67274;SDS011;55463;52.324;5.122;2023-03-01T00:44:22;45.60;;;21.83;;
67274;SDS011;55463;52.324;5.122;2023-03-01T00:46:47;53.35;;;22.80;;
67274;SDS011;55463;52.324;5.122;2023-03-01T00:49:13;45.83;;;21.58;;
67274;SDS011;55463;52.324;5.122;2023-03-01T00:51:39;43.13;;;22.05;;
67274;SDS011;55463;52.324;5.122;2023-03-01T00:54:07;44.72;;;21.45;;
67274;SDS011;55463;52.324;5.122;2023-03-01T00:56:34;43.90;;;21.13;;
67274;SDS011;55463;52.324;5.122;2023-03-01T00:58:59;45.38;;;20.60;;
67274;SDS011;55463;52.324;5.122;2023-03-01T01:01:26;45.45;;;19.75;;
67274;SDS011;55463;52.324;5.122;2023-03-01T01:03:57;46.25;;;20.90;;
67274;SDS011;55463;52.324;5.122;2023-03-01T01:06:24;41.42;;;20.10;;
67274;SDS011;55463;52.324;5.122;2023-03-01T01:08:51;34.67;;;18.60;;
67274;SDS011;55463;52.324;5.122;2023-03-01T01:11:18;48.10;;;21.30;;
67274;SDS011;55463;52.324;5.122;2023-03-01T01:13:45;42.72;;;20.30;;
67274;SDS011;55463;52.324;5.122;2023-03-01T01:16:11;39.95;;;20.98;;
67274;SDS011;55463;52.324;5.122;2023-03-01T01:18:37;46.28;;;20.02;;
67274;SDS011;55463;52.324;5.122;2023-03-01T01:21:04;41.33;;;20.63;;
67274;SDS011;55463;52.324;5.122;2023-03-01T01:26:10;39.63;;;17.50;;
67274;SDS011;55463;52.324;5.122;2023-03-01T01:28:41;48.05;;;21.27;;
67274;SDS011;55463;52.324;5.122;2023-03-01T01:31:06;45.88;;;18.98;;
67274;SDS011;55463;52.324;5.122;2023-03-01T01:33:32;45.78;;;21.80;;
67274;SDS011;55463;52.324;5.122;2023-03-01T01:35:58;38.97;;;19.75;;
67274;SDS011;55463;52.324;5.122;2023-03-01T01:38:24;38.00;;;20.15;;
67274;SDS011;55463;52.324;5.122;2023-03-01T01:40:49;39.47;;;19.92;;
67274;SDS011;55463;52.324;5.122;2023-03-01T01:45:49;91.90;;;46.60;;
67274;SDS011;55463;52.324;5.122;2023-03-01T01:48:19;54.22;;;27.90;;
67274;SDS011;55463;52.324;5.122;2023-03-01T01:50:48;31.38;;;18.27;;
67274;SDS011;55463;52.324;5.122;2023-03-01T01:53:21;45.97;;;23.10;;
67274;SDS011;55463;52.324;5.122;2023-03-01T01:55:51;49.00;;;25.92;;
67274;SDS011;55463;52.324;5.122;2023-03-01T01:58:21;38.42;;;20.70;;
67274;SDS011;55463;52.324;5.122;2023-03-01T02:00:49;69.13;;;36.88;;
67274;SDS011;55463;52.324;5.122;2023-03-01T02:03:17;50.88;;;28.55;;
67274;SDS011;55463;52.324;5.122;2023-03-01T02:05:54;41.38;;;22.63;;
67274;SDS011;55463;52.324;5.122;2023-03-01T02:08:27;48.10;;;24.60;;
67274;SDS011;55463;52.324;5.122;2023-03-01T02:10:55;39.72;;;20.33;;
67274;SDS011;55463;52.324;5.122;2023-03-01T02:13:22;41.03;;;22.10;;
67274;SDS011;55463;52.324;5.122;2023-03-01T02:15:48;45.13;;;21.23;;
67274;SDS011;55463;52.324;5.122;2023-03-01T02:18:16;39.33;;;20.98;;
67274;SDS011;55463;52.324;5.122;2023-03-01T02:21:00;42.97;;;20.13;;
67274;SDS011;55463;52.324;5.122;2023-03-01T02:23:28;36.85;;;19.08;;
67274;SDS011;55463;52.324;5.122;2023-03-01T02:28:30;37.63;;;18.65;;
67274;SDS011;55463;52.324;5.122;2023-03-01T02:31:00;34.08;;;18.50;;
67274;SDS011;55463;52.324;5.122;2023-03-01T02:33:45;33.33;;;17.90;;
67274;SDS011;55463;52.324;5.122;2023-03-01T02:36:47;37.33;;;18.60;;
67274;SDS011;55463;52.324;5.122;2023-03-01T02:39:12;36.00;;;18.67;;
67274;SDS011;55463;52.324;5.122;2023-03-01T02:41:42;36.13;;;18.02;;
67274;SDS011;55463;52.324;5.122;2023-03-01T02:46:42;33.92;;;17.02;;
67274;SDS011;55463;52.324;5.122;2023-03-01T02:54:44;28.30;;;16.90;;
67274;SDS011;55463;52.324;5.122;2023-03-01T02:57:15;31.35;;;17.10;;
67274;SDS011;55463;52.324;5.122;2023-03-01T02:59:40;34.58;;;16.75;;
67274;SDS011;55463;52.324;5.122;2023-03-01T03:02:16;40.33;;;17.77;;
67274;SDS011;55463;52.324;5.122;2023-03-01T03:05:01;35.20;;;17.38;;
67274;SDS011;55463;52.324;5.122;2023-03-01T03:07:32;32.75;;;17.02;;
67274;SDS011;55463;52.324;5.122;2023-03-01T03:09:59;35.38;;;18.30;;
67274;SDS011;55463;52.324;5.122;2023-03-01T03:12:25;33.60;;;17.60;;
67274;SDS011;55463;52.324;5.122;2023-03-01T03:14:50;33.05;;;17.80;;
67274;SDS011;55463;52.324;5.122;2023-03-01T03:17:16;33.53;;;17.40;;
67274;SDS011;55463;52.324;5.122;2023-03-01T03:19:41;31.95;;;16.83;;
67274;SDS011;55463;52.324;5.122;2023-03-01T03:22:10;31.42;;;16.95;;
67274;SDS011;55463;52.324;5.122;2023-03-01T03:24:38;32.33;;;17.08;;
67274;SDS011;55463;52.324;5.122;2023-03-01T03:27:04;33.88;;;16.85;;
67274;SDS011;55463;52.324;5.122;2023-03-01T03:29:30;31.80;;;16.83;;
67274;SDS011;55463;52.324;5.122;2023-03-01T03:31:55;39.20;;;19.55;;
67274;SDS011;55463;52.324;5.122;2023-03-01T03:34:21;34.65;;;17.67;;
67274;SDS011;55463;52.324;5.122;2023-03-01T03:36:46;31.88;;;17.35;;
67274;SDS011;55463;52.324;5.122;2023-03-01T03:39:12;29.02;;;15.40;;
67274;SDS011;55463;52.324;5.122;2023-03-01T03:41:37;29.55;;;16.83;;
67274;SDS011;55463;52.324;5.122;2023-03-01T03:44:02;36.28;;;18.35;;
67274;SDS011;55463;52.324;5.122;2023-03-01T03:46:28;31.48;;;16.80;;
67274;SDS011;55463;52.324;5.122;2023-03-01T03:48:53;31.05;;;13.93;;
67274;SDS011;55463;52.324;5.122;2023-03-01T03:51:19;30.35;;;16.70;;
67274;SDS011;55463;52.324;5.122;2023-03-01T03:53:44;32.30;;;16.90;;
67274;SDS011;55463;52.324;5.122;2023-03-01T03:56:10;29.73;;;16.05;;
67274;SDS011;55463;52.324;5.122;2023-03-01T03:58:36;31.80;;;16.10;;
67274;SDS011;55463;52.324;5.122;2023-03-01T04:01:03;30.95;;;16.58;;
67274;SDS011;55463;52.324;5.122;2023-03-01T04:03:29;29.10;;;14.23;;
67274;SDS011;55463;52.324;5.122;2023-03-01T04:05:57;27.00;;;14.65;;
67274;SDS011;55463;52.324;5.122;2023-03-01T04:08:23;31.25;;;15.75;;
67274;SDS011;55463;52.324;5.122;2023-03-01T04:10:50;28.58;;;16.27;;
67274;SDS011;55463;52.324;5.122;2023-03-01T04:13:21;25.13;;;14.13;;
67274;SDS011;55463;52.324;5.122;2023-03-01T04:15:51;28.92;;;14.57;;
67274;SDS011;55463;52.324;5.122;2023-03-01T04:18:18;19.70;;;12.53;;
67274;SDS011;55463;52.324;5.122;2023-03-01T04:20:45;24.45;;;13.10;;
67274;SDS011;55463;52.324;5.122;2023-03-01T04:23:12;25.33;;;13.38;;
67274;SDS011;55463;52.324;5.122;2023-03-01T04:28:40;25.77;;;13.85;;
67274;SDS011;55463;52.324;5.122;2023-03-01T04:31:15;36.88;;;16.02;;
67274;SDS011;55463;52.324;5.122;2023-03-01T04:36:09;35.70;;;16.88;;
67274;SDS011;55463;52.324;5.122;2023-03-01T04:38:36;29.48;;;14.07;;
67274;SDS011;55463;52.324;5.122;2023-03-01T04:41:03;27.88;;;13.57;;
67274;SDS011;55463;52.324;5.122;2023-03-01T04:43:29;38.75;;;16.17;;
67274;SDS011;55463;52.324;5.122;2023-03-01T04:45:59;30.20;;;14.65;;
67274;SDS011;55463;52.324;5.122;2023-03-01T04:48:27;24.70;;;13.32;;
67274;SDS011;55463;52.324;5.122;2023-03-01T04:50:53;23.77;;;13.27;;
67274;SDS011;55463;52.324;5.122;2023-03-01T04:53:18;23.35;;;12.77;;
67274;SDS011;55463;52.324;5.122;2023-03-01T04:55:44;27.30;;;14.70;;
67274;SDS011;55463;52.324;5.122;2023-03-01T04:58:09;19.83;;;11.23;;
67274;SDS011;55463;52.324;5.122;2023-03-01T05:00:34;26.88;;;13.52;;
67274;SDS011;55463;52.324;5.122;2023-03-01T05:03:00;28.60;;;14.40;;
67274;SDS011;55463;52.324;5.122;2023-03-01T05:05:28;32.78;;;16.58;;
67274;SDS011;55463;52.324;5.122;2023-03-01T05:07:59;32.38;;;16.45;;
67274;SDS011;55463;52.324;5.122;2023-03-01T05:10:27;23.73;;;13.00;;
67274;SDS011;55463;52.324;5.122;2023-03-01T05:12:54;24.80;;;13.05;;
67274;SDS011;55463;52.324;5.122;2023-03-01T05:15:22;23.00;;;12.93;;
67274;SDS011;55463;52.324;5.122;2023-03-01T05:17:50;22.90;;;13.18;;
67274;SDS011;55463;52.324;5.122;2023-03-01T05:20:16;24.95;;;13.05;;
67274;SDS011;55463;52.324;5.122;2023-03-01T05:22:42;24.83;;;13.68;;
67274;SDS011;55463;52.324;5.122;2023-03-01T05:25:07;36.08;;;15.63;;
67274;SDS011;55463;52.324;5.122;2023-03-01T05:27:33;24.98;;;12.43;;
67274;SDS011;55463;52.324;5.122;2023-03-01T05:30:00;22.45;;;11.82;;
67274;SDS011;55463;52.324;5.122;2023-03-01T05:32:38;28.85;;;13.52;;
67274;SDS011;55463;52.324;5.122;2023-03-01T05:35:14;24.33;;;13.68;;
67274;SDS011;55463;52.324;5.122;2023-03-01T05:37:41;23.67;;;13.45;;
67274;SDS011;55463;52.324;5.122;2023-03-01T05:40:11;26.27;;;14.27;;
67274;SDS011;55463;52.324;5.122;2023-03-01T05:42:50;29.10;;;15.60;;
67274;SDS011;55463;52.324;5.122;2023-03-01T05:45:18;28.58;;;13.10;;
67274;SDS011;55463;52.324;5.122;2023-03-01T05:47:44;25.75;;;13.90;;
67274;SDS011;55463;52.324;5.122;2023-03-01T05:50:11;28.73;;;15.07;;
67274;SDS011;55463;52.324;5.122;2023-03-01T05:52:48;33.53;;;16.02;;
67274;SDS011;55463;52.324;5.122;2023-03-01T05:55:16;30.63;;;15.20;;
67274;SDS011;55463;52.324;5.122;2023-03-01T05:57:42;31.60;;;16.50;;
67274;SDS011;55463;52.324;5.122;2023-03-01T06:00:08;28.40;;;14.65;;
67274;SDS011;55463;52.324;5.122;2023-03-01T06:02:34;45.20;;;17.83;;
67274;SDS011;55463;52.324;5.122;2023-03-01T06:05:00;32.95;;;17.88;;
67274;SDS011;55463;52.324;5.122;2023-03-01T06:07:25;36.72;;;16.75;;
67274;SDS011;55463;52.324;5.122;2023-03-01T06:09:51;42.10;;;18.38;;
67274;SDS011;55463;52.324;5.122;2023-03-01T06:12:16;38.95;;;18.42;;
67274;SDS011;55463;52.324;5.122;2023-03-01T06:14:42;39.88;;;17.25;;
67274;SDS011;55463;52.324;5.122;2023-03-01T06:17:07;35.42;;;16.38;;
67274;SDS011;55463;52.324;5.122;2023-03-01T06:19:33;42.15;;;19.15;;
67274;SDS011;55463;52.324;5.122;2023-03-01T06:21:58;43.17;;;19.92;;
67274;SDS011;55463;52.324;5.122;2023-03-01T06:24:23;35.85;;;17.15;;
67274;SDS011;55463;52.324;5.122;2023-03-01T06:26:49;40.13;;;18.15;;
67274;SDS011;55463;52.324;5.122;2023-03-01T06:29:14;34.35;;;16.80;;
67274;SDS011;55463;52.324;5.122;2023-03-01T06:31:40;49.97;;;20.70;;
67274;SDS011;55463;52.324;5.122;2023-03-01T06:34:05;52.88;;;20.60;;
67274;SDS011;55463;52.324;5.122;2023-03-01T06:36:30;59.67;;;23.23;;
67274;SDS011;55463;52.324;5.122;2023-03-01T06:38:56;57.53;;;22.63;;
67274;SDS011;55463;52.324;5.122;2023-03-01T06:41:21;54.28;;;24.08;;
67274;SDS011;55463;52.324;5.122;2023-03-01T06:43:47;61.67;;;24.58;;
67274;SDS011;55463;52.324;5.122;2023-03-01T06:46:12;66.43;;;25.75;;
67274;SDS011;55463;52.324;5.122;2023-03-01T06:48:37;67.47;;;26.85;;
67274;SDS011;55463;52.324;5.122;2023-03-01T06:51:03;68.05;;;26.77;;
67274;SDS011;55463;52.324;5.122;2023-03-01T06:53:29;187.05;;;33.47;;
67274;SDS011;55463;52.324;5.122;2023-03-01T06:55:57;83.88;;;28.15;;
67274;SDS011;55463;52.324;5.122;2023-03-01T06:58:24;76.63;;;28.50;;
67274;SDS011;55463;52.324;5.122;2023-03-01T07:00:50;71.25;;;25.85;;
67274;SDS011;55463;52.324;5.122;2023-03-01T07:03:15;54.83;;;23.80;;
67274;SDS011;55463;52.324;5.122;2023-03-01T07:05:41;61.55;;;24.50;;
67274;SDS011;55463;52.324;5.122;2023-03-01T07:08:07;66.32;;;26.48;;
67274;SDS011;55463;52.324;5.122;2023-03-01T07:10:32;62.88;;;23.55;;
67274;SDS011;55463;52.324;5.122;2023-03-01T07:12:57;66.47;;;24.25;;
67274;SDS011;55463;52.324;5.122;2023-03-01T07:15:24;65.10;;;25.92;;
67274;SDS011;55463;52.324;5.122;2023-03-01T07:17:50;98.65;;;27.55;;
67274;SDS011;55463;52.324;5.122;2023-03-01T07:20:16;88.22;;;31.17;;
67274;SDS011;55463;52.324;5.122;2023-03-01T07:22:49;88.30;;;30.08;;
67274;SDS011;55463;52.324;5.122;2023-03-01T07:25:15;149.27;;;33.15;;
67274;SDS011;55463;52.324;5.122;2023-03-01T07:27:40;111.13;;;34.45;;
67274;SDS011;55463;52.324;5.122;2023-03-01T07:30:06;144.10;;;35.38;;
67274;SDS011;55463;52.324;5.122;2023-03-01T07:32:32;402.75;;;50.05;;
67274;SDS011;55463;52.324;5.122;2023-03-01T07:34:57;989.70;;;78.10;;
67274;SDS011;55463;52.324;5.122;2023-03-01T07:37:22;745.47;;;67.88;;
67274;SDS011;55463;52.324;5.122;2023-03-01T07:39:48;623.65;;;59.92;;
67274;SDS011;55463;52.324;5.122;2023-03-01T07:42:13;672.05;;;61.83;;
67274;SDS011;55463;52.324;5.122;2023-03-01T07:44:38;665.28;;;58.92;;
67274;SDS011;55463;52.324;5.122;2023-03-01T07:47:04;1302.47;;;92.82;;
67274;SDS011;55463;52.324;5.122;2023-03-01T07:49:29;749.42;;;68.20;;
67274;SDS011;55463;52.324;5.122;2023-03-01T07:51:55;1121.20;;;84.60;;
67274;SDS011;55463;52.324;5.122;2023-03-01T07:54:21;613.42;;;57.22;;
67274;SDS011;55463;52.324;5.122;2023-03-01T07:56:46;969.55;;;83.70;;
67274;SDS011;55463;52.324;5.122;2023-03-01T07:59:12;959.90;;;73.43;;
67274;SDS011;55463;52.324;5.122;2023-03-01T08:01:37;562.40;;;57.00;;
67274;SDS011;55463;52.324;5.122;2023-03-01T08:04:02;632.00;;;56.72;;
67274;SDS011;55463;52.324;5.122;2023-03-01T08:06:31;929.33;;;74.22;;
67274;SDS011;55463;52.324;5.122;2023-03-01T08:08:59;855.67;;;67.72;;
67274;SDS011;55463;52.324;5.122;2023-03-01T08:11:24;352.30;;;48.15;;
67274;SDS011;55463;52.324;5.122;2023-03-01T08:13:50;183.90;;;37.78;;
67274;SDS011;55463;52.324;5.122;2023-03-01T08:16:15;148.70;;;34.97;;
67274;SDS011;55463;52.324;5.122;2023-03-01T08:18:41;126.32;;;34.20;;
67274;SDS011;55463;52.324;5.122;2023-03-01T08:21:08;117.53;;;34.05;;
67274;SDS011;55463;52.324;5.122;2023-03-01T08:23:35;100.88;;;32.90;;
67274;SDS011;55463;52.324;5.122;2023-03-01T08:26:09;110.68;;;30.95;;
67274;SDS011;55463;52.324;5.122;2023-03-01T08:28:37;71.82;;;31.15;;
67274;SDS011;55463;52.324;5.122;2023-03-01T08:31:03;129.68;;;32.55;;
67274;SDS011;55463;52.324;5.122;2023-03-01T08:33:38;100.28;;;32.70;;
67274;SDS011;55463;52.324;5.122;2023-03-01T08:36:04;82.32;;;32.15;;
67274;SDS011;55463;52.324;5.122;2023-03-01T08:38:32;77.15;;;31.15;;
67274;SDS011;55463;52.324;5.122;2023-03-01T08:41:02;75.93;;;29.95;;
67274;SDS011;55463;52.324;5.122;2023-03-01T08:43:28;70.35;;;29.27;;
67274;SDS011;55463;52.324;5.122;2023-03-01T08:45:53;67.22;;;29.88;;
67274;SDS011;55463;52.324;5.122;2023-03-01T08:48:19;73.65;;;30.98;;
67274;SDS011;55463;52.324;5.122;2023-03-01T08:50:44;73.78;;;32.63;;
67274;SDS011;55463;52.324;5.122;2023-03-01T08:53:10;67.68;;;30.65;;
67274;SDS011;55463;52.324;5.122;2023-03-01T08:55:35;137.32;;;33.47;;
67274;SDS011;55463;52.324;5.122;2023-03-01T08:58:00;77.43;;;30.02;;
67274;SDS011;55463;52.324;5.122;2023-03-01T09:00:26;59.63;;;26.60;;
67274;SDS011;55463;52.324;5.122;2023-03-01T09:02:51;53.75;;;27.75;;
67274;SDS011;55463;52.324;5.122;2023-03-01T09:05:16;53.63;;;27.38;;
67274;SDS011;55463;52.324;5.122;2023-03-01T09:07:42;53.88;;;26.33;;
67274;SDS011;55463;52.324;5.122;2023-03-01T09:10:07;52.55;;;26.27;;
67274;SDS011;55463;52.324;5.122;2023-03-01T09:12:34;58.95;;;28.92;;
67274;SDS011;55463;52.324;5.122;2023-03-01T09:14:59;50.55;;;25.92;;
67274;SDS011;55463;52.324;5.122;2023-03-01T09:17:24;43.33;;;21.73;;
67274;SDS011;55463;52.324;5.122;2023-03-01T09:19:50;41.08;;;23.25;;
67274;SDS011;55463;52.324;5.122;2023-03-01T09:22:15;38.90;;;21.17;;
67274;SDS011;55463;52.324;5.122;2023-03-01T09:24:41;30.50;;;17.42;;
67274;SDS011;55463;52.324;5.122;2023-03-01T09:27:06;28.80;;;17.58;;
67274;SDS011;55463;52.324;5.122;2023-03-01T09:29:34;25.95;;;13.80;;
67274;SDS011;55463;52.324;5.122;2023-03-01T09:32:08;20.83;;;13.32;;
67274;SDS011;55463;52.324;5.122;2023-03-01T09:34:36;18.20;;;11.60;;
67274;SDS011;55463;52.324;5.122;2023-03-01T09:37:20;20.27;;;11.18;;
67274;SDS011;55463;52.324;5.122;2023-03-01T09:39:46;15.73;;;11.00;;
67274;SDS011;55463;52.324;5.122;2023-03-01T09:42:11;18.55;;;11.65;;
67274;SDS011;55463;52.324;5.122;2023-03-01T09:44:40;19.38;;;11.15;;
67274;SDS011;55463;52.324;5.122;2023-03-01T09:47:21;18.45;;;11.05;;
67274;SDS011;55463;52.324;5.122;2023-03-01T09:50:02;20.17;;;12.55;;
67274;SDS011;55463;52.324;5.122;2023-03-01T09:52:43;24.70;;;14.50;;
67274;SDS011;55463;52.324;5.122;2023-03-01T09:55:15;22.90;;;12.45;;
67274;SDS011;55463;52.324;5.122;2023-03-01T09:57:53;28.25;;;15.43;;
67274;SDS011;55463;52.324;5.122;2023-03-01T10:03:13;27.25;;;15.45;;
67274;SDS011;55463;52.324;5.122;2023-03-01T10:11:17;31.25;;;18.45;;
67274;SDS011;55463;52.324;5.122;2023-03-01T10:13:46;28.70;;;15.10;;
67274;SDS011;55463;52.324;5.122;2023-03-01T10:16:21;24.25;;;13.57;;
67274;SDS011;55463;52.324;5.122;2023-03-01T10:18:53;25.48;;;16.45;;
67274;SDS011;55463;52.324;5.122;2023-03-01T10:21:30;28.45;;;17.27;;
67274;SDS011;55463;52.324;5.122;2023-03-01T10:24:05;32.90;;;17.30;;
67274;SDS011;55463;52.324;5.122;2023-03-01T10:26:39;27.80;;;16.13;;
67274;SDS011;55463;52.324;5.122;2023-03-01T10:29:12;27.92;;;14.00;;
67274;SDS011;55463;52.324;5.122;2023-03-01T10:34:18;22.58;;;12.32;;
67274;SDS011;55463;52.324;5.122;2023-03-01T10:36:52;17.73;;;11.13;;
67274;SDS011;55463;52.324;5.122;2023-03-01T10:39:23;16.55;;;9.32;;
67274;SDS011;55463;52.324;5.122;2023-03-01T10:41:57;13.25;;;8.27;;
67274;SDS011;55463;52.324;5.122;2023-03-01T10:44:38;13.75;;;6.78;;
67274;SDS011;55463;52.324;5.122;2023-03-01T10:50:01;16.48;;;8.13;;
67274;SDS011;55463;52.324;5.122;2023-03-01T10:52:40;14.45;;;8.68;;
67274;SDS011;55463;52.324;5.122;2023-03-01T10:57:40;17.67;;;9.15;;
67274;SDS011;55463;52.324;5.122;2023-03-01T11:00:24;16.05;;;7.22;;
67274;SDS011;55463;52.324;5.122;2023-03-01T11:03:10;12.95;;;7.43;;
67274;SDS011;55463;52.324;5.122;2023-03-01T11:05:44;14.80;;;8.10;;
67274;SDS011;55463;52.324;5.122;2023-03-01T11:08:28;13.85;;;6.03;;
67274;SDS011;55463;52.324;5.122;2023-03-01T11:13:31;9.68;;;6.07;;
67274;SDS011;55463;52.324;5.122;2023-03-01T11:18:26;10.48;;;6.22;;
67274;SDS011;55463;52.324;5.122;2023-03-01T11:20:54;7.50;;;4.75;;
67274;SDS011;55463;52.324;5.122;2023-03-01T11:23:20;15.48;;;4.93;;
67274;SDS011;55463;52.324;5.122;2023-03-01T11:25:58;8.20;;;4.88;;
67274;SDS011;55463;52.324;5.122;2023-03-01T11:28:27;6.35;;;4.38;;
67274;SDS011;55463;52.324;5.122;2023-03-01T11:30:55;11.88;;;4.95;;
67274;SDS011;55463;52.324;5.122;2023-03-01T11:39:03;8.93;;;4.65;;
67274;SDS011;55463;52.324;5.122;2023-03-01T11:41:46;6.68;;;4.32;;
67274;SDS011;55463;52.324;5.122;2023-03-01T11:44:21;9.65;;;5.05;;
67274;SDS011;55463;52.324;5.122;2023-03-01T11:47:12;6.63;;;4.55;;
67274;SDS011;55463;52.324;5.122;2023-03-01T11:52:18;6.35;;;4.72;;
67274;SDS011;55463;52.324;5.122;2023-03-01T12:03:25;8.35;;;4.68;;
67274;SDS011;55463;52.324;5.122;2023-03-01T12:12:04;5.20;;;3.72;;
67274;SDS011;55463;52.324;5.122;2023-03-01T12:17:26;9.52;;;4.68;;
67274;SDS011;55463;52.324;5.122;2023-03-01T12:28:45;6.78;;;4.20;;
67274;SDS011;55463;52.324;5.122;2023-03-01T12:31:34;7.53;;;4.45;;
67274;SDS011;55463;52.324;5.122;2023-03-01T12:50:02;7.10;;;4.53;;
67274;SDS011;55463;52.324;5.122;2023-03-01T12:55:18;8.95;;;4.32;;
67274;SDS011;55463;52.324;5.122;2023-03-01T13:01:10;6.03;;;4.50;;
67274;SDS011;55463;52.324;5.122;2023-03-01T13:09:04;4.53;;;3.60;;
67274;SDS011;55463;52.324;5.122;2023-03-01T13:11:55;8.18;;;3.95;;
67274;SDS011;55463;52.324;5.122;2023-03-01T13:16:49;10.43;;;4.53;;
67274;SDS011;55463;52.324;5.122;2023-03-01T13:19:17;5.90;;;3.97;;
67274;SDS011;55463;52.324;5.122;2023-03-01T13:21:45;7.82;;;3.70;;
67274;SDS011;55463;52.324;5.122;2023-03-01T13:27:39;5.80;;;3.88;;
67274;SDS011;55463;52.324;5.122;2023-03-01T13:34:46;6.25;;;4.40;;
67274;SDS011;55463;52.324;5.122;2023-03-01T13:37:22;5.20;;;3.45;;
67274;SDS011;55463;52.324;5.122;2023-03-01T13:39:54;9.57;;;4.40;;
67274;SDS011;55463;52.324;5.122;2023-03-01T13:42:38;7.13;;;4.28;;
67274;SDS011;55463;52.324;5.122;2023-03-01T13:45:18;4.88;;;3.85;;
67274;SDS011;55463;52.324;5.122;2023-03-01T13:47:54;4.28;;;3.40;;
67274;SDS011;55463;52.324;5.122;2023-03-01T13:50:28;4.80;;;3.80;;
67274;SDS011;55463;52.324;5.122;2023-03-01T13:52:56;4.40;;;3.80;;
67274;SDS011;55463;52.324;5.122;2023-03-01T13:57:56;9.00;;;4.65;;
67274;SDS011;55463;52.324;5.122;2023-03-01T14:00:34;7.13;;;4.38;;
67274;SDS011;55463;52.324;5.122;2023-03-01T14:05:39;6.93;;;4.45;;
67274;SDS011;55463;52.324;5.122;2023-03-01T14:08:23;6.03;;;4.38;;
67274;SDS011;55463;52.324;5.122;2023-03-01T14:24:13;6.28;;;4.10;;
67274;SDS011;55463;52.324;5.122;2023-03-01T14:26:42;5.15;;;4.25;;
67274;SDS011;55463;52.324;5.122;2023-03-01T14:29:22;7.70;;;4.88;;
67274;SDS011;55463;52.324;5.122;2023-03-01T14:32:09;7.88;;;5.00;;
67274;SDS011;55463;52.324;5.122;2023-03-01T14:34:44;8.60;;;4.88;;
67274;SDS011;55463;52.324;5.122;2023-03-01T14:37:17;5.50;;;3.95;;
67274;SDS011;55463;52.324;5.122;2023-03-01T14:39:46;7.38;;;5.00;;
67274;SDS011;55463;52.324;5.122;2023-03-01T14:42:12;12.05;;;4.70;;
67274;SDS011;55463;52.324;5.122;2023-03-01T14:44:40;7.55;;;4.53;;
67274;SDS011;55463;52.324;5.122;2023-03-01T14:47:22;11.13;;;4.90;;
67274;SDS011;55463;52.324;5.122;2023-03-01T14:49:54;6.47;;;4.13;;
67274;SDS011;55463;52.324;5.122;2023-03-01T14:52:25;6.63;;;4.28;;
67274;SDS011;55463;52.324;5.122;2023-03-01T14:55:06;5.78;;;3.90;;
67274;SDS011;55463;52.324;5.122;2023-03-01T14:57:42;6.28;;;3.72;;
67274;SDS011;55463;52.324;5.122;2023-03-01T15:00:10;7.88;;;4.07;;
67274;SDS011;55463;52.324;5.122;2023-03-01T15:02:50;6.40;;;4.10;;
67274;SDS011;55463;52.324;5.122;2023-03-01T15:05:18;8.13;;;3.70;;
67274;SDS011;55463;52.324;5.122;2023-03-01T15:07:50;8.02;;;4.60;;
67274;SDS011;55463;52.324;5.122;2023-03-01T15:10:20;6.78;;;4.13;;
67274;SDS011;55463;52.324;5.122;2023-03-01T15:12:47;9.50;;;4.78;;
67274;SDS011;55463;52.324;5.122;2023-03-01T15:15:20;7.47;;;4.20;;
67274;SDS011;55463;52.324;5.122;2023-03-01T15:18:01;7.55;;;4.25;;
67274;SDS011;55463;52.324;5.122;2023-03-01T15:20:46;7.45;;;4.82;;
67274;SDS011;55463;52.324;5.122;2023-03-01T15:25:52;4.60;;;3.72;;
67274;SDS011;55463;52.324;5.122;2023-03-01T15:28:23;8.60;;;5.00;;
67274;SDS011;55463;52.324;5.122;2023-03-01T15:30:55;8.60;;;5.10;;
67274;SDS011;55463;52.324;5.122;2023-03-01T15:35:52;7.07;;;4.57;;
67274;SDS011;55463;52.324;5.122;2023-03-01T15:40:58;6.18;;;4.18;;
67274;SDS011;55463;52.324;5.122;2023-03-01T15:46:02;7.82;;;4.90;;
67274;SDS011;55463;52.324;5.122;2023-03-01T15:48:29;6.03;;;3.97;;
67274;SDS011;55463;52.324;5.122;2023-03-01T15:50:56;5.93;;;3.85;;
67274;SDS011;55463;52.324;5.122;2023-03-01T15:53:23;5.97;;;3.78;;
67274;SDS011;55463;52.324;5.122;2023-03-01T15:55:49;7.95;;;4.45;;
67274;SDS011;55463;52.324;5.122;2023-03-01T15:58:19;9.02;;;4.30;;
67274;SDS011;55463;52.324;5.122;2023-03-01T16:00:47;6.03;;;4.38;;
67274;SDS011;55463;52.324;5.122;2023-03-01T16:03:15;11.30;;;3.80;;
67274;SDS011;55463;52.324;5.122;2023-03-01T16:05:46;8.93;;;4.40;;
67274;SDS011;55463;52.324;5.122;2023-03-01T16:08:12;4.65;;;3.58;;
67274;SDS011;55463;52.324;5.122;2023-03-01T16:10:39;6.47;;;4.43;;
67274;SDS011;55463;52.324;5.122;2023-03-01T16:13:09;8.80;;;4.70;;
67274;SDS011;55463;52.324;5.122;2023-03-01T16:15:37;6.38;;;4.05;;
67274;SDS011;55463;52.324;5.122;2023-03-01T16:18:04;7.65;;;4.75;;
67274;SDS011;55463;52.324;5.122;2023-03-01T16:20:31;6.72;;;4.32;;
67274;SDS011;55463;52.324;5.122;2023-03-01T16:22:57;7.53;;;3.85;;
67274;SDS011;55463;52.324;5.122;2023-03-01T16:25:25;7.25;;;4.03;;
67274;SDS011;55463;52.324;5.122;2023-03-01T16:27:51;6.03;;;4.03;;
67274;SDS011;55463;52.324;5.122;2023-03-01T16:30:18;5.10;;;3.50;;
67274;SDS011;55463;52.324;5.122;2023-03-01T16:32:46;6.43;;;4.50;;
67274;SDS011;55463;52.324;5.122;2023-03-01T16:35:13;7.30;;;4.50;;
67274;SDS011;55463;52.324;5.122;2023-03-01T16:37:40;8.90;;;4.95;;
67274;SDS011;55463;52.324;5.122;2023-03-01T16:40:07;7.90;;;5.20;;
67274;SDS011;55463;52.324;5.122;2023-03-01T16:42:41;9.15;;;5.13;;
67274;SDS011;55463;52.324;5.122;2023-03-01T16:45:07;6.72;;;4.50;;
67274;SDS011;55463;52.324;5.122;2023-03-01T16:47:33;11.38;;;5.05;;
67274;SDS011;55463;52.324;5.122;2023-03-01T16:50:01;7.22;;;4.90;;
67274;SDS011;55463;52.324;5.122;2023-03-01T16:52:27;8.70;;;5.00;;
67274;SDS011;55463;52.324;5.122;2023-03-01T16:54:52;9.38;;;5.22;;
67274;SDS011;55463;52.324;5.122;2023-03-01T16:57:18;8.52;;;5.35;;
67274;SDS011;55463;52.324;5.122;2023-03-01T16:59:43;11.52;;;5.82;;
67274;SDS011;55463;52.324;5.122;2023-03-01T17:02:10;10.50;;;4.97;;